Sand Key, FL current weather conditions

sailwx.info

Wind from 030 at 21 knots gusting 25

Air temperature 18.0° C

Last reported at 2014-Nov-29 07:50 UTC.
Time now 2014-Nov-29 08:40 UTC

Location: N 24°27' W 081°53'.
View on Google Maps.

See reports from other nearby stations

  
Tides and Currents Weather Stations Pressure Air Temp Water Temp Dewpoint Dewpoint Depression Visibility Wind Speed Wind Dir Waves Ship Positions
date/time (UTC)wind fromknots sea level pressurealtimeterstation pressurevisibilityair tempwater tempwave heightnotes
2014-Nov-29 07:50 030 21 gusting 25 18.0
2014-Nov-29 06:50 030 24 gusting 27 17.9
2014-Nov-29 05:50 030 22 gusting 26 18.5
2014-Nov-29 04:50 030 20 gusting 25 18.4
2014-Nov-29 03:50 040 20 gusting 24 18.7
2014-Nov-29 02:50 040 19 gusting 21 19.2
2014-Nov-29 01:50 040 19 gusting 22 19.4
2014-Nov-29 00:50 040 19 gusting 21 19.4
2014-Nov-28 23:50 030 18 gusting 21 19.2
2014-Nov-28 22:50 020 19 gusting 22 18.8
2014-Nov-28 21:50 020 19 gusting 22 18.4
2014-Nov-28 20:50 020 19 gusting 21 18.0
2014-Nov-28 19:50 020 18 gusting 21 17.7
2014-Nov-28 18:50 020 19 gusting 21 17.3
2014-Nov-28 17:50 020 20 gusting 24 16.9
2014-Nov-28 16:50 020 20 gusting 24 16.6
2014-Nov-28 15:50 020 21 gusting 26 16.2
2014-Nov-28 14:50 020 22 gusting 27 15.9
2014-Nov-28 13:50 030 22 gusting 27 15.9
2014-Nov-28 12:50 020 22 gusting 27 16.0
2014-Nov-28 11:50 020 22 gusting 28 16.0
2014-Nov-28 10:50 020 25 gusting 29 16.0
2014-Nov-28 09:50 020 26 gusting 29 16.5
2014-Nov-28 08:50 020 26 gusting 29 17.0
2014-Nov-28 07:50 020 26 gusting 28 17.8
2014-Nov-28 06:50 360 24 gusting 28 19.0
2014-Nov-28 05:50 010 21 gusting 26 19.7
2014-Nov-28 04:50 360 20 gusting 25 19.9
2014-Nov-28 03:50 360 20 gusting 22 20.4
2014-Nov-28 02:50 350 21 gusting 26 20.5
2014-Nov-28 01:50 360 25 gusting 28 20.7
2014-Nov-28 00:50 350 21 gusting 25 20.7
2014-Nov-27 23:50 360 19 gusting 22 20.9
2014-Nov-27 22:50 360 20 gusting 24 20.6
2014-Nov-27 21:50 010 19 gusting 24 20.2
2014-Nov-27 20:50 360 21 gusting 25 19.8
2014-Nov-27 19:50 010 24 gusting 27 19.7
2014-Nov-27 18:50 010 25 gusting 28 19.6
2014-Nov-27 17:50 020 26 gusting 28 19.5
2014-Nov-27 16:50 010 25 gusting 29 19.0
2014-Nov-27 15:50 020 22 gusting 27 18.6
2014-Nov-27 14:50 030 22 gusting 26 18.1
2014-Nov-27 13:50 020 21 gusting 27 17.9
2014-Nov-27 12:50 020 22 gusting 27 18.1
2014-Nov-27 11:50 020 20 gusting 25 18.2
2014-Nov-27 10:50 020 21 gusting 24 18.1
2014-Nov-27 09:50 010 20 gusting 25 18.0
2014-Nov-27 08:50 020 20 gusting 24 18.1